Time;durP1;ratioP1;P1;durP2;ratioP2;P2;SDS_P1;SDS_P2;PMS_P1;PMS_P2;Temp;Humidity;BMP_temperature;BMP_pressure;BME280_temperature;BME280_humidity;BME280_pressure;Samples;Min_cycle;Max_cycle;Signal;HPM_P1;HPM_P2
2021/08/28 00:01:15;;;;;;;0.80;0.70;;;14.80;90.10;;;;;;5054099;28;20082;-73
2021/08/28 00:03:40;;;;;;;0.98;0.65;;;14.80;90.10;;;;;;5053580;28;20024;-75
2021/08/28 00:06:06;;;;;;;0.70;0.68;;;14.80;90.10;;;;;;5053834;28;20032;-75
2021/08/28 00:08:31;;;;;;;0.70;0.70;;;14.90;90.10;;;;;;5053890;28;20029;-74
2021/08/28 00:10:57;;;;;;;0.50;0.50;;;14.90;90.10;;;;;;5053843;28;20033;-73
2021/08/28 00:13:22;;;;;;;0.55;0.52;;;14.90;90.10;;;;;;5053891;28;20013;-74
2021/08/28 00:15:49;;;;;;;0.40;0.40;;;14.90;90.20;;;;;;5053769;28;20025;-74
2021/08/28 00:18:15;;;;;;;1.65;0.63;;;14.90;90.20;;;;;;5053330;28;20021;-74
2021/08/28 00:20:40;;;;;;;0.47;0.47;;;14.90;90.20;;;;;;5053692;28;20079;-75
2021/08/28 00:23:07;;;;;;;0.63;0.43;;;15.00;90.20;;;;;;5053622;28;20017;-76
2021/08/28 00:25:34;;;;;;;1.08;0.70;;;15.00;90.20;;;;;;5053681;28;20039;-73
2021/08/28 00:28:00;;;;;;;0.90;0.60;;;15.00;90.20;;;;;;5035691;28;20059;-75
2021/08/28 00:30:25;;;;;;;0.68;0.68;;;15.00;90.30;;;;;;5053499;28;20021;-76
2021/08/28 00:32:51;;;;;;;0.75;0.75;;;15.00;90.30;;;;;;5053092;28;20029;-76
2021/08/28 00:35:19;;;;;;;1.75;0.68;;;15.00;90.20;;;;;;5053312;28;20021;-74
2021/08/28 00:37:44;;;;;;;0.38;0.38;;;15.10;90.30;;;;;;5053485;28;20469;-74
2021/08/28 00:40:10;;;;;;;0.55;0.55;;;15.10;90.30;;;;;;5053334;28;20056;-74
2021/08/28 00:42:51;;;;;;;0.80;0.80;;;15.10;90.50;;;;;;5053223;28;20104;-74
2021/08/28 00:45:18;;;;;;;0.70;0.70;;;15.20;90.50;;;;;;5053458;28;20043;-76
2021/08/28 00:47:53;;;;;;;0.85;0.50;;;15.10;90.30;;;;;;5035142;28;20482;-74
2021/08/28 00:50:19;;;;;;;0.68;0.60;;;15.20;90.30;;;;;;5053337;28;20041;-74
2021/08/28 00:52:45;;;;;;;0.95;0.73;;;15.20;90.30;;;;;;5052481;28;20146;-75
2021/08/28 00:55:10;;;;;;;0.60;0.60;;;15.20;90.20;;;;;;5053411;28;20021;-74
2021/08/28 00:57:37;;;;;;;0.50;0.47;;;15.20;90.20;;;;;;5053155;28;20474;-75
2021/08/28 01:00:06;;;;;;;1.05;0.73;;;15.30;90.20;;;;;;5052657;28;20059;-74
2021/08/28 01:02:32;;;;;;;0.67;0.57;;;15.30;90.20;;;;;;5053053;28;20074;-75
2021/08/28 01:05:19;;;;;;;0.77;0.60;;;15.30;90.20;;;;;;5053216;28;20271;-76
2021/08/28 01:08:09;;;;;;;0.60;0.60;;;15.30;90.10;;;;;;5053049;28;20029;-75
2021/08/28 01:10:39;;;;;;;1.20;1.00;;;15.30;90.10;;;;;;5052915;28;20072;-75
2021/08/28 01:13:10;;;;;;;0.57;0.57;;;15.30;90.50;;;;;;5053107;28;20046;-74
2021/08/28 01:15:37;;;;;;;0.98;0.73;;;15.20;90.30;;;;;;5052720;28;20363;-75
2021/08/28 01:18:05;;;;;;;0.63;0.63;;;15.20;90.40;;;;;;5052946;28;20090;-73
2021/08/28 01:21:00;;;;;;;0.57;0.57;;;15.20;90.30;;;;;;5035107;28;20386;-74
2021/08/28 01:23:32;;;;;;;0.60;0.52;;;15.30;90.30;;;;;;5052835;28;20025;-75
2021/08/28 01:26:04;;;;;;;0.47;0.47;;;15.20;90.30;;;;;;5052964;28;20021;-74
2021/08/28 01:28:34;;;;;;;1.17;0.70;;;15.20;90.40;;;;;;5052933;28;20025;-73
2021/08/28 01:31:00;;;;;;;0.63;0.60;;;15.30;90.40;;;;;;5052417;28;20029;-74
2021/08/28 01:33:27;;;;;;;0.43;0.43;;;15.30;90.40;;;;;;5052736;28;20025;-75
2021/08/28 01:35:54;;;;;;;0.60;0.60;;;15.30;90.40;;;;;;5052711;28;20502;-74
2021/08/28 01:38:20;;;;;;;0.65;0.60;;;15.40;90.30;;;;;;5052822;28;20025;-74
2021/08/28 01:40:48;;;;;;;0.70;0.68;;;15.40;90.30;;;;;;5052811;28;20053;-74
2021/08/28 01:43:14;;;;;;;0.98;0.90;;;15.40;90.30;;;;;;5052864;28;20120;-75
2021/08/28 01:45:41;;;;;;;1.63;1.15;;;15.40;90.30;;;;;;5052189;28;20470;-75
2021/08/28 01:48:07;;;;;;;0.70;0.50;;;15.40;90.30;;;;;;5052508;28;20080;-75
2021/08/28 01:50:33;;;;;;;1.38;1.25;;;15.40;90.30;;;;;;5052562;28;20025;-75
2021/08/28 01:52:59;;;;;;;0.88;0.82;;;15.40;90.30;;;;;;5052683;28;20029;-74
2021/08/28 01:55:25;;;;;;;1.27;0.50;;;15.40;90.40;;;;;;5034854;28;20109;-73
2021/08/28 01:57:50;;;;;;;1.35;0.80;;;15.40;90.40;;;;;;5052143;28;20028;-77
2021/08/28 02:00:16;;;;;;;1.10;0.93;;;15.40;90.40;;;;;;5052587;28;20024;-74
2021/08/28 02:02:42;;;;;;;1.27;1.00;;;15.40;90.50;;;;;;5053289;28;20029;-74
2021/08/28 02:05:11;;;;;;;1.23;0.90;;;15.30;90.50;;;;;;5056094;28;20062;-76
2021/08/28 02:07:55;;;;;;;;;;;15.30;90.80;;;;;;5056607;28;20078;-76
2021/08/28 02:10:31;;;;;;;1.23;0.90;;;15.30;90.40;;;;;;5056193;28;19905;-74
2021/08/28 02:13:04;;;;;;;0.80;0.68;;;15.30;90.40;;;;;;5055590;28;20021;-74
2021/08/28 02:15:38;;;;;;;2.55;0.85;;;15.40;90.50;;;;;;5056023;28;20108;-74
2021/08/28 02:18:26;;;;;;;0.80;0.75;;;15.40;90.50;;;;;;5056147;28;20508;-76
2021/08/28 02:20:57;;;;;;;1.17;0.73;;;15.30;90.50;;;;;;5056069;28;20025;-74
2021/08/28 02:23:46;;;;;;;1.25;1.15;;;15.30;90.60;;;;;;5055993;28;20412;-73
2021/08/28 02:26:19;;;;;;;1.13;0.82;;;15.30;90.60;;;;;;5055869;28;20107;-74
2021/08/28 02:29:03;;;;;;;0.90;0.80;;;15.30;90.60;;;;;;5055372;28;20068;-75
2021/08/28 02:31:41;;;;;;;1.23;0.70;;;15.40;90.60;;;;;;5055773;28;20037;-75
2021/08/28 02:34:09;;;;;;;0.77;0.63;;;15.40;90.60;;;;;;5055843;28;20028;-75
2021/08/28 02:36:39;;;;;;;0.68;0.68;;;15.40;90.60;;;;;;5055622;28;20079;-74
2021/08/28 02:39:06;;;;;;;0.85;0.60;;;15.40;90.60;;;;;;5055725;28;20378;-74
2021/08/28 02:41:32;;;;;;;0.68;0.68;;;15.40;90.60;;;;;;5055115;28;20021;-75
2021/08/28 02:44:00;;;;;;;0.65;0.60;;;15.40;90.70;;;;;;5055534;28;20025;-77
2021/08/28 02:46:27;;;;;;;0.80;0.75;;;15.40;90.70;;;;;;5055565;28;20531;-74
2021/08/28 02:48:55;;;;;;;0.77;0.70;;;15.40;90.70;;;;;;5055342;28;20045;-74
2021/08/28 02:51:22;;;;;;;1.25;0.93;;;15.40;90.70;;;;;;5055300;28;20497;-75
2021/08/28 02:53:48;;;;;;;1.27;0.63;;;15.50;90.80;;;;;;5055276;28;20021;-74
2021/08/28 02:56:15;;;;;;;1.00;0.90;;;15.50;90.70;;;;;;5054767;28;20033;-75
2021/08/28 02:58:41;;;;;;;2.08;1.10;;;15.50;91.00;;;;;;5055216;28;20378;-75
2021/08/28 03:01:08;;;;;;;2.47;1.48;;;15.50;90.80;;;;;;5055112;28;20021;-75
2021/08/28 03:03:35;;;;;;;1.90;1.20;;;15.50;90.90;;;;;;5037303;28;20017;-74
2021/08/28 03:06:02;;;;;;;3.03;1.00;;;15.50;91.20;;;;;;5055030;28;20355;-74
2021/08/28 03:08:28;;;;;;;1.17;1.08;;;15.50;91.00;;;;;;5055193;28;20524;-75
2021/08/28 03:10:54;;;;;;;1.52;1.20;;;15.40;91.00;;;;;;5054432;28;20032;-74
2021/08/28 03:13:21;;;;;;;1.38;1.05;;;15.40;91.10;;;;;;5054936;28;20497;-74
2021/08/28 03:15:49;;;;;;;1.63;1.20;;;15.40;91.20;;;;;;5054101;28;20482;-73
2021/08/28 03:18:18;;;;;;;1.20;1.10;;;15.40;91.30;;;;;;5054883;28;20025;-74
2021/08/28 03:20:46;;;;;;;2.28;0.90;;;15.40;91.30;;;;;;5054917;28;20439;-75
2021/08/28 03:23:15;;;;;;;0.95;0.93;;;15.40;91.30;;;;;;5054685;28;20386;-74
2021/08/28 03:25:42;;;;;;;1.33;1.07;;;15.40;91.30;;;;;;5054172;28;20390;-74
2021/08/28 03:28:10;;;;;;;1.10;1.00;;;15.40;91.30;;;;;;5054700;28;20021;-75
2021/08/28 03:30:36;;;;;;;0.70;0.70;;;15.40;91.40;;;;;;5054795;28;20032;-76
2021/08/28 03:33:02;;;;;;;0.88;0.88;;;15.40;91.40;;;;;;5054617;28;20029;-75
2021/08/28 03:35:29;;;;;;;1.90;1.70;;;15.30;91.40;;;;;;5036535;28;20031;-74
2021/08/28 03:37:56;;;;;;;2.78;1.40;;;15.40;91.40;;;;;;5036607;28;20045;-74
2021/08/28 03:40:22;;;;;;;1.45;0.93;;;15.40;91.40;;;;;;5036203;28;20017;-74
2021/08/28 03:42:47;;;;;;;1.35;1.23;;;15.40;91.40;;;;;;5054326;28;20027;-74
2021/08/28 03:45:13;;;;;;;1.13;0.60;;;15.40;91.40;;;;;;5054419;28;20029;-74
2021/08/28 03:47:43;;;;;;;1.63;0.75;;;15.40;91.30;;;;;;5054276;28;20037;-73
2021/08/28 03:50:10;;;;;;;1.25;0.70;;;15.50;91.30;;;;;;5054369;28;20075;-75
2021/08/28 03:52:35;;;;;;;0.45;0.40;;;15.50;91.20;;;;;;5036349;28;20037;-75
2021/08/28 03:55:01;;;;;;;1.23;0.75;;;15.60;91.20;;;;;;5053527;28;20116;-74
2021/08/28 03:57:26;;;;;;;1.40;0.55;;;15.50;91.20;;;;;;5054124;28;20025;-75
2021/08/28 03:59:52;;;;;;;0.93;0.90;;;15.50;91.30;;;;;;5054257;28;20060;-75
2021/08/28 04:02:17;;;;;;;0.60;0.60;;;15.50;91.30;;;;;;5053963;28;20033;-75
2021/08/28 04:04:43;;;;;;;1.35;1.25;;;15.50;91.30;;;;;;5036211;28;20210;-75
2021/08/28 04:07:08;;;;;;;0.50;0.45;;;15.50;91.30;;;;;;5053922;28;20029;-75
2021/08/28 04:09:34;;;;;;;0.85;0.70;;;15.50;91.40;;;;;;5053458;28;20409;-75
2021/08/28 04:11:59;;;;;;;0.40;0.38;;;15.50;91.40;;;;;;5053671;28;20048;-74
2021/08/28 04:14:25;;;;;;;1.90;0.77;;;15.50;91.40;;;;;;5053897;28;20021;-76
2021/08/28 04:16:50;;;;;;;0.52;0.52;;;15.50;91.40;;;;;;5053813;28;20036;-76
2021/08/28 04:19:16;;;;;;;0.82;0.50;;;15.50;91.50;;;;;;5053830;28;20493;-74
2021/08/28 04:21:41;;;;;;;0.82;0.75;;;15.50;91.50;;;;;;5053805;28;20371;-75
2021/08/28 04:24:07;;;;;;;0.98;0.88;;;15.50;91.50;;;;;;5053060;28;20043;-76
2021/08/28 04:26:32;;;;;;;1.55;0.98;;;15.50;91.60;;;;;;5053406;28;20037;-75
2021/08/28 04:28:58;;;;;;;0.73;0.70;;;15.50;91.60;;;;;;5053700;28;20027;-75
2021/08/28 04:31:24;;;;;;;1.63;1.10;;;15.50;91.50;;;;;;5035651;28;20047;-75
2021/08/28 04:33:50;;;;;;;0.88;0.80;;;15.60;91.60;;;;;;5053417;28;20017;-76
2021/08/28 04:36:16;;;;;;;0.70;0.70;;;15.50;91.50;;;;;;5053389;28;20025;-75
2021/08/28 04:38:42;;;;;;;1.48;1.00;;;15.60;91.60;;;;;;5053123;28;20032;-75
2021/08/28 04:41:07;;;;;;;0.60;0.60;;;15.60;91.50;;;;;;5053377;28;20029;-75
2021/08/28 04:43:33;;;;;;;1.10;1.00;;;15.60;91.50;;;;;;5053350;28;20152;-74
2021/08/28 04:45:58;;;;;;;0.65;0.65;;;15.60;91.50;;;;;;5035412;28;20021;-75
2021/08/28 04:48:24;;;;;;;1.77;1.35;;;15.60;91.60;;;;;;5035286;28;20548;-74
2021/08/28 04:50:50;;;;;;;1.20;1.10;;;15.60;91.70;;;;;;5053172;28;20032;-75
2021/08/28 04:53:15;;;;;;;0.88;0.88;;;15.50;91.60;;;;;;5052650;28;20029;-75
2021/08/28 04:55:41;;;;;;;1.65;1.15;;;15.50;91.60;;;;;;5053128;28;20168;-76
2021/08/28 04:58:06;;;;;;;1.90;1.10;;;15.50;91.60;;;;;;5053231;28;20466;-76
2021/08/28 05:00:32;;;;;;;1.08;0.77;;;15.50;91.60;;;;;;5053127;28;20037;-74
2021/08/28 05:02:58;;;;;;;1.17;1.05;;;15.50;91.50;;;;;;5053200;28;20017;-74
2021/08/28 05:05:23;;;;;;;1.00;0.98;;;15.50;91.60;;;;;;5053174;28;20086;-75
2021/08/28 05:07:49;;;;;;;1.25;1.15;;;15.50;91.60;;;;;;5052537;28;20021;-74
2021/08/28 05:10:14;;;;;;;0.60;0.60;;;15.50;91.60;;;;;;5035167;28;20025;-76
2021/08/28 05:12:40;;;;;;;1.48;0.98;;;15.50;91.60;;;;;;5035368;28;20382;-75
2021/08/28 05:15:06;;;;;;;1.45;1.05;;;15.50;91.50;;;;;;5053230;28;20493;-74
2021/08/28 05:17:32;;;;;;;1.02;0.80;;;15.60;91.60;;;;;;5052998;28;20029;-76
2021/08/28 05:19:57;;;;;;;1.20;0.70;;;15.60;91.60;;;;;;5052936;28;20028;-75
2021/08/28 05:22:23;;;;;;;1.83;1.73;;;15.60;91.60;;;;;;5052510;28;20024;-74
2021/08/28 05:24:48;;;;;;;1.15;0.70;;;15.60;91.60;;;;;;5053022;28;20021;-75
2021/08/28 05:27:14;;;;;;;1.25;1.00;;;15.70;91.60;;;;;;5052853;28;20507;-75
2021/08/28 05:29:39;;;;;;;0.80;0.80;;;15.70;91.60;;;;;;5052832;28;20040;-76
2021/08/28 05:32:05;;;;;;;1.33;1.02;;;15.70;91.60;;;;;;5052796;28;20026;-74
2021/08/28 05:34:31;;;;;;;1.08;0.90;;;15.70;91.60;;;;;;5034988;28;20450;-75
2021/08/28 05:36:57;;;;;;;1.42;1.10;;;15.60;91.60;;;;;;5052377;28;20025;-76
2021/08/28 05:39:23;;;;;;;1.05;0.98;;;15.60;91.60;;;;;;5038512;28;20028;-75
2021/08/28 05:41:48;;;;;;;1.05;0.95;;;15.70;91.60;;;;;;5056626;28;20640;-75
2021/08/28 05:44:14;;;;;;;1.80;0.80;;;15.70;91.60;;;;;;5056617;28;20064;-75
2021/08/28 05:46:40;;;;;;;0.77;0.77;;;15.70;91.60;;;;;;5056691;28;20032;-76
2021/08/28 05:49:08;;;;;;;0.82;0.75;;;15.70;91.60;;;;;;5056323;28;20056;-75
2021/08/28 05:51:34;;;;;;;1.53;0.97;;;15.70;91.60;;;;;;5056132;28;20033;-77
2021/08/28 05:53:59;;;;;;;1.00;0.77;;;15.80;91.60;;;;;;5056492;28;20086;-77
2021/08/28 05:56:25;;;;;;;1.05;0.75;;;15.80;91.60;;;;;;5038635;28;20029;-76
2021/08/28 05:58:50;;;;;;;1.10;0.80;;;15.90;91.60;;;;;;5056278;28;20028;-78
2021/08/28 06:01:16;;;;;;;1.00;0.90;;;15.90;91.50;;;;;;5056458;28;20036;-79
2021/08/28 06:03:41;;;;;;;1.20;0.95;;;16.00;91.50;;;;;;5056421;28;20487;-78
2021/08/28 06:06:07;;;;;;;0.90;0.90;;;16.10;91.40;;;;;;5055975;28;20507;-78
2021/08/28 06:08:33;;;;;;;1.98;1.20;;;16.20;91.30;;;;;;5056312;28;20032;-77
2021/08/28 06:10:58;;;;;;;1.60;1.00;;;16.20;91.30;;;;;;5056128;28;20041;-78
2021/08/28 06:13:24;;;;;;;1.63;1.00;;;16.20;91.40;;;;;;5038154;28;20035;-78
2021/08/28 06:15:49;;;;;;;1.45;1.25;;;16.30;91.40;;;;;;5056061;28;20029;-77
2021/08/28 06:18:15;;;;;;;1.00;0.95;;;16.40;91.30;;;;;;5038246;28;20071;-76
2021/08/28 06:20:40;;;;;;;1.13;0.85;;;16.40;91.30;;;;;;5055674;28;20064;-77
2021/08/28 06:23:06;;;;;;;1.33;1.23;;;16.40;91.30;;;;;;5055944;28;20024;-79
2021/08/28 06:25:31;;;;;;;1.40;1.10;;;16.50;91.30;;;;;;5055811;28;20027;-78
2021/08/28 06:27:57;;;;;;;1.27;1.02;;;16.50;91.30;;;;;;5037973;28;20025;-77
2021/08/28 06:30:22;;;;;;;1.48;1.10;;;16.50;91.30;;;;;;5055794;28;20036;-78
2021/08/28 06:32:48;;;;;;;1.30;1.00;;;16.50;91.40;;;;;;5056151;28;20052;-79
2021/08/28 06:35:13;;;;;;;1.25;0.90;;;16.40;91.50;;;;;;5037376;28;20481;-78
2021/08/28 06:37:39;;;;;;;0.65;0.52;;;16.40;91.60;;;;;;5055548;28;20037;-79
2021/08/28 06:40:05;;;;;;;0.63;0.63;;;16.40;91.60;;;;;;5056202;28;20074;-76
2021/08/28 06:42:31;;;;;;;1.02;1.00;;;16.40;91.50;;;;;;5055598;28;20490;-77
2021/08/28 06:44:56;;;;;;;1.52;0.90;;;16.40;91.60;;;;;;5055566;28;20025;-76
2021/08/28 06:47:22;;;;;;;1.10;0.90;;;16.40;91.60;;;;;;5055454;28;20036;-77
2021/08/28 06:49:47;;;;;;;1.13;0.98;;;16.50;91.60;;;;;;5053700;28;20100;-72
2021/08/28 06:52:13;;;;;;;0.77;0.77;;;16.60;91.50;;;;;;5055450;28;20505;-80
2021/08/28 06:54:39;;;;;;;0.82;0.80;;;16.60;91.50;;;;;;5055653;28;20036;-84
2021/08/28 06:57:04;;;;;;;2.53;1.80;;;16.70;91.60;;;;;;5037388;28;20029;-77
2021/08/28 06:59:30;;;;;;;1.65;1.42;;;16.70;91.50;;;;;;5037378;28;20021;-75
2021/08/28 07:01:55;;;;;;;2.50;1.58;;;16.60;91.50;;;;;;5055231;28;20100;-82
2021/08/28 07:04:21;;;;;;;2.17;1.25;;;16.60;91.60;;;;;;5036868;28;20032;-80
2021/08/28 07:06:46;;;;;;;1.65;1.27;;;16.60;91.70;;;;;;5055257;28;20040;-80
2021/08/28 07:09:12;;;;;;;2.03;1.42;;;16.70;91.70;;;;;;5037115;28;20017;-81
2021/08/28 07:11:38;;;;;;;1.50;1.40;;;16.80;91.50;;;;;;5055004;28;20489;-80
2021/08/28 07:14:03;;;;;;;1.38;1.20;;;17.00;91.40;;;;;;5055039;28;20024;-83
2021/08/28 07:16:29;;;;;;;1.42;1.30;;;17.10;91.30;;;;;;5055212;28;20064;-81
2021/08/28 07:18:54;;;;;;;1.85;1.10;;;17.00;91.30;;;;;;5054416;28;20017;-80
2021/08/28 07:21:20;;;;;;;1.60;1.50;;;16.90;91.50;;;;;;5054998;28;20047;-80
2021/08/28 07:23:47;;;;;;;1.27;0.90;;;16.90;91.50;;;;;;5037017;28;20070;-79
2021/08/28 07:26:14;;;;;;;1.52;1.40;;;17.00;91.50;;;;;;5055064;28;20025;-80
2021/08/28 07:28:39;;;;;;;1.05;0.93;;;17.10;91.30;;;;;;5055514;28;20440;-79
2021/08/28 07:31:05;;;;;;;3.90;1.55;;;17.20;91.30;;;;;;5055529;28;20505;-81
2021/08/28 07:33:31;;;;;;;1.30;1.20;;;17.20;91.30;;;;;;5054657;28;20087;-80
2021/08/28 07:35:57;;;;;;;1.33;1.10;;;17.20;91.30;;;;;;5054801;28;20099;-81
2021/08/28 07:38:22;;;;;;;1.63;1.27;;;17.20;91.20;;;;;;5054828;28;20036;-79
2021/08/28 07:40:48;;;;;;;0.88;0.80;;;17.20;91.20;;;;;;5054476;28;20029;-78
2021/08/28 07:43:13;;;;;;;0.82;0.80;;;17.20;91.30;;;;;;5054315;28;20021;-78
2021/08/28 07:45:39;;;;;;;1.63;1.08;;;17.30;91.20;;;;;;5036510;28;20021;-77
2021/08/28 07:48:04;;;;;;;1.10;0.90;;;17.40;91.10;;;;;;5035858;28;20077;-78
2021/08/28 07:50:30;;;;;;;0.75;0.75;;;17.40;91.10;;;;;;5054301;28;20033;-79
2021/08/28 07:52:55;;;;;;;0.90;0.90;;;17.40;91.20;;;;;;5053957;28;20075;-79
2021/08/28 07:55:21;;;;;;;0.50;0.50;;;17.40;91.10;;;;;;5054190;28;20025;-78
2021/08/28 07:57:47;;;;;;;1.23;1.02;;;17.50;91.00;;;;;;5054186;28;20073;-80
2021/08/28 08:00:13;;;;;;;1.67;1.20;;;17.60;90.90;;;;;;5053632;28;20017;-79
2021/08/28 08:02:39;;;;;;;0.77;0.77;;;17.70;90.80;;;;;;5035770;28;20112;-78
2021/08/28 08:05:05;;;;;;;2.35;1.73;;;17.70;90.80;;;;;;5054112;28;20494;-79
2021/08/28 08:07:30;;;;;;;2.10;1.67;;;17.80;90.70;;;;;;5036071;28;20025;-78
2021/08/28 08:09:56;;;;;;;1.80;1.20;;;17.90;90.70;;;;;;5053837;28;20401;-79
2021/08/28 08:12:22;;;;;;;1.50;1.17;;;17.90;90.70;;;;;;5035946;28;20064;-77
2021/08/28 08:14:48;;;;;;;2.08;1.15;;;18.00;90.70;;;;;;5053930;28;20024;-79
2021/08/28 08:17:14;;;;;;;1.30;1.17;;;18.00;90.70;;;;;;5053739;28;20040;-76
2021/08/28 08:19:41;;;;;;;1.27;1.17;;;18.00;90.60;;;;;;5053787;28;20017;-74
2021/08/28 08:22:06;;;;;;;0.93;0.88;;;18.10;90.60;;;;;;5053654;28;20033;-75
2021/08/28 08:24:32;;;;;;;1.17;0.98;;;18.20;90.50;;;;;;5053541;28;20043;-73
2021/08/28 08:26:57;;;;;;;1.15;1.00;;;18.30;90.50;;;;;;5053677;28;20017;-75
2021/08/28 08:29:23;;;;;;;1.30;1.20;;;18.30;90.50;;;;;;5053070;28;20498;-74
2021/08/28 08:31:53;;;;;;;1.55;1.17;;;18.30;90.40;;;;;;5053483;28;20098;-73
2021/08/28 08:34:19;;;;;;;1.35;0.90;;;18.30;90.50;;;;;;5035600;28;20482;-74
2021/08/28 08:36:44;;;;;;;1.10;0.98;;;18.40;90.40;;;;;;5053399;28;20036;-73
2021/08/28 08:39:10;;;;;;;0.98;0.98;;;18.50;90.40;;;;;;5053464;28;20017;-74
2021/08/28 08:41:36;;;;;;;2.10;1.50;;;18.50;90.40;;;;;;5053275;28;20036;-73
2021/08/28 08:44:02;;;;;;;1.63;1.35;;;18.50;90.40;;;;;;5053000;28;20060;-74
2021/08/28 08:46:28;;;;;;;2.72;1.80;;;18.50;90.30;;;;;;5053142;28;20053;-73
2021/08/28 08:48:54;;;;;;;2.63;1.45;;;18.60;90.20;;;;;;5053187;28;20125;-74
2021/08/28 08:51:20;;;;;;;1.52;1.40;;;18.70;90.30;;;;;;5053722;28;20533;-74
2021/08/28 08:53:47;;;;;;;1.45;1.17;;;18.80;90.20;;;;;;5053245;28;20102;-73
2021/08/28 08:56:13;;;;;;;1.20;0.95;;;18.90;90.10;;;;;;5053191;28;20021;-75
2021/08/28 08:58:39;;;;;;;1.10;0.95;;;18.90;90.10;;;;;;5034919;28;20025;-74
2021/08/28 09:01:06;;;;;;;1.73;1.40;;;18.90;90.10;;;;;;5053099;28;20029;-75
2021/08/28 09:03:32;;;;;;;1.85;1.38;;;18.90;90.00;;;;;;5053113;28;20386;-75
2021/08/28 09:05:58;;;;;;;3.33;2.05;;;18.90;90.00;;;;;;5053047;28;20013;-74
2021/08/28 09:08:23;;;;;;;2.88;1.92;;;19.00;89.80;;;;;;5052948;28;20027;-76
2021/08/28 09:10:49;;;;;;;2.38;1.77;;;19.00;89.90;;;;;;5053030;28;20048;-75
2021/08/28 09:13:24;;;;;;;2.13;1.38;;;19.00;90.00;;;;;;5036589;28;20540;-75
2021/08/28 09:15:55;;;;;;;1.30;1.20;;;19.20;89.60;;;;;;5057305;28;20025;-74
2021/08/28 09:18:22;;;;;;;1.75;1.42;;;19.40;89.60;;;;;;5057146;28;20118;-74
2021/08/28 09:20:48;;;;;;;1.60;1.10;;;19.70;89.10;;;;;;5057088;28;20056;-75
2021/08/28 09:23:16;;;;;;;1.15;1.00;;;19.90;88.50;;;;;;5057078;28;20061;-75
2021/08/28 09:25:44;;;;;;;2.07;1.30;;;20.10;88.30;;;;;;5039039;28;20055;-74
2021/08/28 09:28:11;;;;;;;1.60;1.50;;;20.20;88.00;;;;;;5038871;28;20021;-76
2021/08/28 09:30:45;;;;;;;1.70;1.27;;;20.20;88.10;;;;;;5056901;28;20057;-75
2021/08/28 09:33:14;;;;;;;1.75;1.40;;;20.20;89.00;;;;;;5056988;28;20100;-74
2021/08/28 09:35:41;;;;;;;1.75;1.33;;;20.10;88.10;;;;;;5038912;28;20424;-74
2021/08/28 09:38:13;;;;;;;1.45;1.35;;;19.90;88.80;;;;;;5056868;28;20070;-76
2021/08/28 09:40:45;;;;;;;1.63;1.20;;;19.70;89.10;;;;;;5056790;28;20021;-75
2021/08/28 09:43:17;;;;;;;1.85;1.45;;;19.70;88.90;;;;;;5056277;28;20161;-76
2021/08/28 09:45:46;;;;;;;3.35;1.80;;;19.70;88.90;;;;;;5056736;28;20066;-75
2021/08/28 09:48:13;;;;;;;1.35;1.17;;;19.70;89.00;;;;;;5056459;28;20044;-75
2021/08/28 09:50:47;;;;;;;1.90;1.30;;;19.80;88.80;;;;;;5038536;28;20017;-73
2021/08/28 09:53:27;;;;;;;2.10;1.48;;;19.80;88.70;;;;;;5056639;28;20033;-75
2021/08/28 09:55:55;;;;;;;1.83;1.38;;;19.80;88.20;;;;;;5056281;28;20036;-74
2021/08/28 09:58:24;;;;;;;1.10;1.00;;;19.80;88.50;;;;;;5056017;28;20426;-75
2021/08/28 10:00:50;;;;;;;0.77;0.77;;;19.90;88.30;;;;;;5056643;28;20053;-73
2021/08/28 10:03:18;;;;;;;0.98;0.95;;;20.00;88.20;;;;;;5056348;28;20425;-74
2021/08/28 10:05:45;;;;;;;0.90;0.73;;;20.10;87.90;;;;;;5056141;28;20063;-75
2021/08/28 10:08:10;;;;;;;1.05;0.68;;;20.10;87.80;;;;;;5056231;28;20021;-74
2021/08/28 10:10:39;;;;;;;0.98;0.88;;;20.10;87.80;;;;;;5056080;28;20135;-75
2021/08/28 10:13:08;;;;;;;0.63;0.63;;;20.10;87.70;;;;;;5055599;28;20508;-75
2021/08/28 10:15:35;;;;;;;;;;;20.20;87.40;;;;;;5038620;28;20021;-76
2021/08/28 10:18:04;;;;;;;1.15;1.05;;;20.20;87.70;;;;;;5055890;28;19904;-75
2021/08/28 10:20:31;;;;;;;0.75;0.75;;;20.20;87.40;;;;;;5056112;28;20074;-75
2021/08/28 10:23:02;;;;;;;1.33;1.08;;;20.20;87.40;;;;;;5055968;28;20496;-77
2021/08/28 10:25:30;;;;;;;1.67;1.10;;;20.30;87.30;;;;;;5055308;28;20032;-77
2021/08/28 10:27:56;;;;;;;0.63;0.63;;;20.40;87.00;;;;;;5055957;28;20017;-79
2021/08/28 10:30:24;;;;;;;0.50;0.50;;;20.40;86.70;;;;;;5055851;28;20347;-84
2021/08/28 10:32:50;;;;;;;0.85;0.70;;;20.40;86.70;;;;;;5055597;28;20090;-82
2021/08/28 10:35:18;;;;;;;0.77;0.77;;;20.50;86.50;;;;;;5055893;28;20017;-83
2021/08/28 10:37:44;;;;;;;1.00;0.80;;;20.50;86.40;;;;;;5055748;28;20059;-75
2021/08/28 10:40:18;;;;;;;1.27;0.77;;;20.50;86.30;;;;;;5055352;28;20025;-79
2021/08/28 10:42:45;;;;;;;0.60;0.60;;;20.50;86.30;;;;;;5055669;28;20071;-77
2021/08/28 10:45:11;;;;;;;0.63;0.63;;;20.50;86.30;;;;;;5055496;28;20032;-79
2021/08/28 10:47:37;;;;;;;0.63;0.57;;;20.60;86.20;;;;;;5055322;28;20118;-78
2021/08/28 10:50:09;;;;;;;0.77;0.70;;;20.60;85.90;;;;;;5037506;28;20100;-78
2021/08/28 10:52:40;;;;;;;1.10;0.98;;;20.60;85.80;;;;;;5055409;28;20397;-75
2021/08/28 10:55:11;;;;;;;0.90;0.73;;;20.40;85.90;;;;;;5055021;28;20086;-78
2021/08/28 10:57:38;;;;;;;1.23;1.13;;;20.40;86.30;;;;;;5055303;28;20480;-76
2021/08/28 11:00:11;;;;;;;0.50;0.50;;;20.40;86.10;;;;;;5037350;28;20025;-77
2021/08/28 11:02:57;;;;;;;1.05;0.95;;;20.50;85.90;;;;;;5055462;28;20113;-77
2021/08/28 11:05:26;;;;;;;0.70;0.65;;;20.80;85.60;;;;;;5055379;28;20021;-79
2021/08/28 11:07:53;;;;;;;1.35;0.95;;;21.00;84.80;;;;;;5055139;28;20013;-73
2021/08/28 11:10:21;;;;;;;0.82;0.80;;;20.90;84.50;;;;;;5054679;28;20027;-75
2021/08/28 11:13:04;;;;;;;1.85;1.08;;;20.80;84.90;;;;;;5054837;28;20402;-74
2021/08/28 11:15:35;;;;;;;1.25;0.85;;;20.90;85.20;;;;;;5055004;28;20416;-74
2021/08/28 11:18:13;;;;;;;0.85;0.73;;;20.90;85.20;;;;;;5054977;28;20021;-72
2021/08/28 11:20:47;;;;;;;2.10;0.70;;;21.10;84.90;;;;;;5054863;28;20028;-77
2021/08/28 11:23:18;;;;;;;2.83;0.63;;;21.30;84.20;;;;;;5054807;28;20021;-74
2021/08/28 11:25:48;;;;;;;1.40;1.30;;;21.40;83.70;;;;;;5054736;28;20381;-75
2021/08/28 11:28:18;;;;;;;0.98;0.88;;;21.10;83.80;;;;;;5054899;28;20520;-75
2021/08/28 11:30:46;;;;;;;1.10;1.00;;;20.90;84.30;;;;;;5054640;28;20029;-75
2021/08/28 11:33:32;;;;;;;1.00;1.00;;;20.80;85.00;;;;;;5054693;28;20027;-80
2021/08/28 11:36:00;;;;;;;1.42;0.80;;;20.80;84.70;;;;;;5053869;28;20013;-78
2021/08/28 11:38:36;;;;;;;1.07;0.87;;;20.80;84.50;;;;;;5036337;28;20040;-77
2021/08/28 11:41:08;;;;;;;1.85;1.02;;;21.00;84.30;;;;;;5054258;28;20035;-77
2021/08/28 11:43:37;;;;;;;0.85;0.85;;;21.10;83.80;;;;;;5054592;28;20029;-79
2021/08/28 11:46:11;;;;;;;1.15;0.90;;;21.20;83.50;;;;;;5054961;28;20426;-82
2021/08/28 11:48:40;;;;;;;1.17;1.05;;;21.40;83.40;;;;;;5056449;28;20046;-78
2021/08/28 11:51:12;;;;;;;1.30;1.17;;;21.60;82.40;;;;;;5037795;28;20025;-82
2021/08/28 11:53:39;;;;;;;1.63;1.30;;;21.70;82.20;;;;;;5055251;28;20044;-81
2021/08/28 11:56:11;;;;;;;0.82;0.82;;;21.50;82.60;;;;;;5054214;28;20017;-80
2021/08/28 11:59:00;;;;;;;0.98;0.90;;;21.30;83.00;;;;;;5054446;28;20377;-80
2021/08/28 12:01:33;;;;;;;0.93;0.90;;;21.00;83.20;;;;;;5036216;28;20020;-77
2021/08/28 12:04:06;;;;;;;0.73;0.60;;;21.00;83.30;;;;;;5036161;28;20017;-81
2021/08/28 12:06:33;;;;;;;0.75;0.75;;;21.10;83.40;;;;;;5054108;28;20033;-80
2021/08/28 12:08:59;;;;;;;0.75;0.70;;;21.30;83.20;;;;;;5053630;28;20029;-79
2021/08/28 12:11:26;;;;;;;0.98;0.73;;;21.30;83.00;;;;;;5054004;28;20033;-75
2021/08/28 12:13:55;;;;;;;0.60;0.60;;;21.30;83.10;;;;;;5053858;28;20086;-80
2021/08/28 12:16:27;;;;;;;1.13;0.98;;;21.30;83.00;;;;;;5054110;28;20021;-80
2021/08/28 12:19:06;;;;;;;0.68;0.60;;;21.30;82.90;;;;;;5036188;28;20028;-80
2021/08/28 12:21:44;;;;;;;0.60;0.60;;;21.30;83.00;;;;;;5053605;28;20029;-84
2021/08/28 12:24:48;;;;;;;1.10;0.85;;;21.30;83.00;;;;;;5053902;28;20482;-79
2021/08/28 12:27:14;;;;;;;1.17;1.08;;;21.20;82.80;;;;;;5053990;28;20482;-75
2021/08/28 12:29:44;;;;;;;1.27;1.17;;;20.90;82.80;;;;;;5053713;28;20036;-82
2021/08/28 12:32:12;;;;;;;1.33;1.23;;;20.40;83.50;;;;;;5053637;28;20486;-81
2021/08/28 12:34:43;;;;;;;0.90;0.85;;;20.20;84.20;;;;;;5053731;28;20473;-82
2021/08/28 12:37:14;;;;;;;1.85;1.10;;;20.20;84.20;;;;;;5053022;28;20021;-81
2021/08/28 12:39:42;;;;;;;1.08;0.93;;;20.10;84.00;;;;;;5053517;28;20021;-79
2021/08/28 12:42:12;;;;;;;0.70;0.68;;;20.40;83.80;;;;;;5053408;28;20036;-79
2021/08/28 12:44:38;;;;;;;1.20;0.90;;;20.50;82.70;;;;;;5053411;28;20533;-81
2021/08/28 12:47:08;;;;;;;1.10;0.75;;;20.70;82.70;;;;;;5053464;28;20029;-81
2021/08/28 12:49:34;;;;;;;1.45;1.10;;;21.00;82.00;;;;;;5053194;28;20036;-80
2021/08/28 12:52:06;;;;;;;1.67;1.05;;;21.00;82.00;;;;;;5052820;28;20385;-81